Time;durP1;ratioP1;P1;durP2;ratioP2;P2;SDS_P1;SDS_P2;PMS_P1;PMS_P2;Temp;Humidity;BMP_temperature;BMP_pressure;BME280_temperature;BME280_humidity;BME280_pressure;Samples;Min_cycle;Max_cycle;Signal;HPM_P1;HPM_P2
2022/03/03 00:00:21;;;;;;;27.38;13.68;;;1.70;99.90;;;;;;5122364;27;20071;-77
2022/03/03 00:02:46;;;;;;;43.70;17.83;;;1.70;99.90;;;;;;5089496;28;20569;-77
2022/03/03 00:05:12;;;;;;;34.40;16.45;;;1.70;99.90;;;;;;5088953;28;20169;-77
2022/03/03 00:07:39;;;;;;;27.60;14.57;;;1.70;99.90;;;;;;5091496;28;20039;-77
2022/03/03 00:10:08;;;;;;;21.27;11.10;;;1.70;99.90;;;;;;5088575;28;20122;-77
2022/03/03 00:12:34;;;;;;;22.90;13.27;;;1.70;99.90;;;;;;5087499;28;20044;-77
2022/03/03 00:15:00;;;;;;;22.70;13.77;;;1.70;99.90;;;;;;5072627;28;20410;-77
2022/03/03 00:17:26;;;;;;;24.67;12.15;;;1.70;99.90;;;;;;5076261;28;20039;-77
2022/03/03 00:19:51;;;;;;;27.88;13.38;;;1.60;99.90;;;;;;5071207;28;20047;-77
2022/03/03 00:22:17;;;;;;;20.92;11.35;;;1.60;99.90;;;;;;5105435;28;20062;-77
2022/03/03 00:24:44;;;;;;;21.55;10.27;;;1.60;99.90;;;;;;5071179;28;20043;-77
2022/03/03 00:27:09;;;;;;;7.13;3.53;;;1.60;99.90;;;;;;5122147;27;20403;-77
2022/03/03 00:29:35;;;;;;;13.68;8.43;;;1.50;99.90;;;;;;5071721;28;20039;-77
2022/03/03 00:32:01;;;;;;;24.60;14.13;;;1.50;99.90;;;;;;5089257;28;20765;-77
2022/03/03 00:34:26;;;;;;;15.45;6.88;;;1.50;99.90;;;;;;5086785;28;20036;-77
2022/03/03 00:36:52;;;;;;;25.17;14.18;;;1.50;99.90;;;;;;5072638;28;20122;-77
2022/03/03 00:39:18;;;;;;;24.77;11.95;;;1.50;99.90;;;;;;5078840;28;20395;-77
2022/03/03 00:41:43;;;;;;;19.10;8.82;;;1.40;99.90;;;;;;5089138;28;20491;-78
2022/03/03 00:44:10;;;;;;;25.85;12.73;;;1.40;99.90;;;;;;5072595;28;20119;-77
2022/03/03 00:46:39;;;;;;;41.65;9.25;;;1.40;99.90;;;;;;5088315;28;20043;-78
2022/03/03 00:49:05;;;;;;;10.38;7.95;;;1.30;99.90;;;;;;5072608;28;20040;-77
2022/03/03 00:51:32;;;;;;;3.08;2.88;;;1.30;99.90;;;;;;5105409;28;20126;-78
2022/03/03 00:53:58;;;;;;;7.43;6.63;;;1.30;99.90;;;;;;5108773;27;20479;-78
2022/03/03 00:56:24;;;;;;;26.33;12.13;;;1.20;99.90;;;;;;5068472;28;20040;-77
2022/03/03 00:58:50;;;;;;;4.38;3.90;;;1.20;99.90;;;;;;5068901;28;20109;-77
2022/03/03 01:01:16;;;;;;;14.43;5.72;;;1.10;99.90;;;;;;5100835;28;20131;-78
2022/03/03 01:03:42;;;;;;;7.95;6.68;;;1.10;99.90;;;;;;5105429;28;20415;-77
2022/03/03 01:06:09;;;;;;;17.55;6.57;;;1.10;99.90;;;;;;5089163;28;20039;-77
2022/03/03 01:08:35;;;;;;;18.15;7.80;;;1.10;99.90;;;;;;5121614;27;20040;-77
2022/03/03 01:11:00;;;;;;;15.00;9.05;;;1.10;99.90;;;;;;5091313;27;20043;-77
2022/03/03 01:13:26;;;;;;;16.55;9.55;;;1.00;99.90;;;;;;5107965;28;20115;-77
2022/03/03 01:15:53;;;;;;;29.90;12.57;;;1.00;99.90;;;;;;5075043;28;20381;-77
2022/03/03 01:18:19;;;;;;;18.45;11.93;;;1.00;99.90;;;;;;5051756;28;20086;-77
2022/03/03 01:20:45;;;;;;;19.90;9.65;;;1.00;99.90;;;;;;5082137;28;20078;-78
2022/03/03 01:23:10;;;;;;;16.90;8.07;;;0.90;99.90;;;;;;5108730;28;20039;-78
2022/03/03 01:25:36;;;;;;;23.70;10.77;;;0.90;99.90;;;;;;5109423;28;20472;-78
2022/03/03 01:28:02;;;;;;;0.65;0.65;;;0.90;99.90;;;;;;5089806;28;20126;-77
2022/03/03 01:30:27;;;;;;;13.07;6.22;;;0.80;99.90;;;;;;5124864;28;20039;-78
2022/03/03 01:32:53;;;;;;;23.80;10.65;;;0.80;99.90;;;;;;5109258;28;20134;-78
2022/03/03 01:35:19;;;;;;;12.45;8.48;;;0.70;99.90;;;;;;5092557;28;20088;-77
2022/03/03 01:37:44;;;;;;;8.85;7.60;;;0.80;99.90;;;;;;5105148;28;20043;-78
2022/03/03 01:40:11;;;;;;;1.02;1.02;;;0.70;99.90;;;;;;5108913;28;20035;-78
2022/03/03 01:42:37;;;;;;;15.32;9.35;;;0.60;99.90;;;;;;5090413;28;20070;-77
2022/03/03 01:45:04;;;;;;;16.73;7.57;;;0.50;99.90;;;;;;5099656;28;20128;-78
2022/03/03 01:47:30;;;;;;;29.35;12.40;;;0.50;99.90;;;;;;5107860;28;20126;-78
2022/03/03 01:49:57;;;;;;;12.07;5.65;;;0.50;99.90;;;;;;5107902;28;20126;-77
2022/03/03 01:52:23;;;;;;;24.17;10.45;;;0.50;99.90;;;;;;5088384;28;20119;-77
2022/03/03 01:54:49;;;;;;;6.35;5.82;;;0.50;99.90;;;;;;5118253;28;20145;-78
2022/03/03 01:57:19;;;;;;;6.53;3.63;;;0.40;99.90;;;;;;5092304;28;20141;-78
2022/03/03 02:00:03;;;;;;;30.63;15.10;;;0.40;99.90;;;;;;5107624;28;20043;-78
2022/03/03 02:02:44;;;;;;;23.20;11.30;;;0.40;99.90;;;;;;5103532;28;20085;-78
2022/03/03 02:05:09;;;;;;;29.15;14.40;;;0.40;99.90;;;;;;5089975;28;20104;-78
2022/03/03 02:07:35;;;;;;;34.13;14.18;;;0.50;99.90;;;;;;5108670;28;20039;-78
2022/03/03 02:10:03;;;;;;;22.00;10.63;;;0.50;99.90;;;;;;5093533;27;20031;-78
2022/03/03 02:12:29;;;;;;;24.67;11.07;;;0.50;99.90;;;;;;5090304;28;20048;-78
2022/03/03 02:15:05;;;;;;;0.90;0.90;;;0.50;99.90;;;;;;5093260;27;20030;-78
2022/03/03 02:17:30;;;;;;;3.72;3.45;;;0.50;99.90;;;;;;5091709;28;20050;-78
2022/03/03 02:19:57;;;;;;;16.65;9.48;;;0.40;99.90;;;;;;5090474;28;20040;-78
2022/03/03 02:22:25;;;;;;;27.60;12.48;;;0.30;99.90;;;;;;5073417;28;20173;-78
2022/03/03 02:24:51;;;;;;;17.33;8.85;;;0.30;99.90;;;;;;5103829;27;20086;-78
2022/03/03 02:27:18;;;;;;;21.05;4.95;;;0.30;99.90;;;;;;5089282;27;20071;-78
2022/03/03 02:29:43;;;;;;;4.47;4.03;;;0.20;99.90;;;;;;5112343;27;20035;-78
2022/03/03 02:32:09;;;;;;;0.90;0.90;;;0.20;99.90;;;;;;5092893;27;20100;-78
2022/03/03 02:34:35;;;;;;;2.65;2.47;;;0.10;99.90;;;;;;5110250;27;20130;-78
2022/03/03 02:37:01;;;;;;;4.88;2.63;;;0.00;99.90;;;;;;5125447;27;20046;-78
2022/03/03 02:39:27;;;;;;;1.05;1.05;;;-0.10;99.90;;;;;;5090754;27;20039;-78
2022/03/03 02:41:52;;;;;;;3.63;3.33;;;-0.10;99.90;;;;;;5110053;27;20050;-78
2022/03/03 02:44:18;;;;;;;12.68;7.22;;;-0.10;99.90;;;;;;5093641;27;20495;-78
2022/03/03 02:47:04;;;;;;;6.82;5.00;;;-0.10;99.90;;;;;;5092479;27;20558;-78
2022/03/03 02:49:32;;;;;;;7.53;6.50;;;-0.10;99.90;;;;;;5109192;27;20051;-78
2022/03/03 02:51:58;;;;;;;20.85;9.88;;;0.00;99.90;;;;;;5089649;27;20039;-78
2022/03/03 02:54:23;;;;;;;23.50;12.20;;;-0.10;99.90;;;;;;5089240;27;20585;-78
2022/03/03 02:59:34;;;;;;;14.35;9.45;;;-0.20;99.90;;;;;;5104658;27;20046;-78
2022/03/03 03:02:00;;;;;;;3.00;2.15;;;-0.20;99.90;;;;;;5109765;27;20063;-77
2022/03/03 03:04:25;;;;;;;16.75;7.88;;;-0.20;99.90;;;;;;5106928;27;20467;-78
2022/03/03 03:06:51;;;;;;;1.23;1.23;;;-0.30;99.90;;;;;;5072374;28;20040;-78
2022/03/03 03:09:39;;;;;;;2.33;2.22;;;-0.30;99.90;;;;;;5090931;27;20639;-78
2022/03/03 03:12:05;;;;;;;17.95;8.25;;;-0.30;99.90;;;;;;5105614;27;20465;-78
2022/03/03 03:14:32;;;;;;;32.22;16.70;;;-0.30;99.90;;;;;;5090020;27;20047;-78
2022/03/03 03:17:01;;;;;;;18.52;9.45;;;-0.30;99.90;;;;;;5106703;27;20038;-78
2022/03/03 03:19:29;;;;;;;8.50;6.25;;;-0.20;99.90;;;;;;5085177;27;20043;-78
2022/03/03 03:21:55;;;;;;;15.70;8.73;;;-0.20;99.90;;;;;;5081109;28;20064;-78
2022/03/03 03:24:20;;;;;;;31.23;14.32;;;-0.20;99.90;;;;;;5069890;28;20048;-78
2022/03/03 03:26:46;;;;;;;40.58;18.17;;;-0.10;99.90;;;;;;5066772;28;20677;-77
2022/03/03 03:29:11;;;;;;;29.75;14.50;;;-0.20;99.90;;;;;;5069847;28;20042;-78
2022/03/03 03:31:37;;;;;;;44.83;18.55;;;-0.10;99.90;;;;;;5086738;28;20098;-78
2022/03/03 03:34:02;;;;;;;39.47;18.67;;;0.00;99.90;;;;;;5062070;28;20158;-78
2022/03/03 03:36:28;;;;;;;33.20;16.35;;;0.00;99.90;;;;;;5050481;28;20287;-78
2022/03/03 03:38:57;;;;;;;52.58;22.20;;;0.10;99.90;;;;;;5049205;28;20131;-78
2022/03/03 03:41:23;;;;;;;36.50;15.88;;;0.20;99.90;;;;;;5067470;28;20492;-78
2022/03/03 03:43:51;;;;;;;74.32;20.30;;;0.20;99.90;;;;;;5079272;28;20040;-78
2022/03/03 03:46:17;;;;;;;58.35;23.65;;;0.20;99.90;;;;;;5041605;28;20053;-78
2022/03/03 03:48:45;;;;;;;45.97;19.05;;;0.30;99.90;;;;;;5045885;28;20143;-78
2022/03/03 03:51:11;;;;;;;42.63;18.08;;;0.30;99.90;;;;;;5064474;28;20067;-78
2022/03/03 03:53:36;;;;;;;41.42;21.10;;;0.30;99.90;;;;;;5070425;28;20090;-78
2022/03/03 03:56:02;;;;;;;52.70;22.40;;;0.30;99.90;;;;;;5051524;28;20044;-79
2022/03/03 03:58:28;;;;;;;33.50;15.45;;;0.30;99.90;;;;;;5069490;28;20043;-78
2022/03/03 04:00:54;;;;;;;48.50;23.70;;;0.30;99.90;;;;;;5059141;28;20114;-78
2022/03/03 04:03:19;;;;;;;34.28;13.43;;;0.30;99.90;;;;;;5070763;28;20071;-78
2022/03/03 04:05:45;;;;;;;46.83;22.95;;;0.30;99.90;;;;;;5080634;28;20044;-78
2022/03/03 04:08:10;;;;;;;32.65;17.20;;;0.30;99.90;;;;;;5078084;28;20570;-78
2022/03/03 04:10:47;;;;;;;39.17;17.55;;;0.30;99.90;;;;;;5059929;28;20134;-78
2022/03/03 04:13:15;;;;;;;23.77;11.90;;;0.30;99.90;;;;;;5047348;28;20047;-78
2022/03/03 04:15:50;;;;;;;28.65;14.10;;;0.30;99.90;;;;;;5062911;28;20070;-78
2022/03/03 04:18:15;;;;;;;41.72;18.67;;;0.30;99.90;;;;;;5049641;28;20548;-78
2022/03/03 04:20:41;;;;;;;26.95;13.93;;;0.30;99.90;;;;;;5065935;27;20135;-78
2022/03/03 04:23:07;;;;;;;29.70;16.25;;;0.30;99.90;;;;;;5067270;27;20057;-78
2022/03/03 04:25:33;;;;;;;35.53;16.73;;;0.30;99.90;;;;;;5068483;27;20105;-78
2022/03/03 04:28:00;;;;;;;37.88;15.88;;;0.30;99.90;;;;;;5078272;27;20406;-78
2022/03/03 04:30:31;;;;;;;30.40;15.85;;;0.20;99.90;;;;;;5086274;27;20046;-78
2022/03/03 04:33:03;;;;;;;39.20;16.65;;;0.30;99.90;;;;;;5101646;27;20129;-78
2022/03/03 04:35:28;;;;;;;22.23;14.68;;;0.20;99.90;;;;;;5088706;27;20392;-78
2022/03/03 04:38:00;;;;;;;21.55;11.48;;;0.20;99.90;;;;;;5107829;27;20042;-78
2022/03/03 04:40:26;;;;;;;36.13;14.95;;;0.20;99.90;;;;;;5084761;28;20136;-78
2022/03/03 04:42:51;;;;;;;31.10;14.90;;;0.20;99.90;;;;;;5088986;28;20637;-78
2022/03/03 04:45:17;;;;;;;18.08;10.73;;;0.20;99.90;;;;;;5080359;27;20039;-78
2022/03/03 04:47:43;;;;;;;9.25;5.15;;;0.20;99.90;;;;;;5081970;28;20035;-78
2022/03/03 04:50:09;;;;;;;0.55;0.55;;;0.10;99.90;;;;;;5105581;28;20126;-78
2022/03/03 04:52:35;;;;;;;11.55;5.30;;;0.00;99.90;;;;;;5088926;28;20035;-78
2022/03/03 04:55:02;;;;;;;5.93;5.03;;;-0.10;99.90;;;;;;5091970;27;20039;-78
2022/03/03 04:57:28;;;;;;;11.63;8.70;;;-0.20;99.90;;;;;;5109137;27;20039;-78
2022/03/03 04:59:53;;;;;;;2.70;2.50;;;-0.20;99.90;;;;;;5102485;28;20042;-78
2022/03/03 05:02:19;;;;;;;0.45;0.45;;;-0.20;99.90;;;;;;5087443;28;20043;-78
2022/03/03 05:04:45;;;;;;;2.63;2.10;;;-0.30;99.90;;;;;;5104644;27;20050;-78
2022/03/03 05:07:10;;;;;;;28.20;11.40;;;-0.40;99.90;;;;;;5092680;27;20047;-78
2022/03/03 05:09:36;;;;;;;12.20;8.65;;;-0.40;99.90;;;;;;5105678;27;20027;-78
2022/03/03 05:12:02;;;;;;;19.63;10.75;;;-0.30;99.90;;;;;;5082548;28;20088;-78
2022/03/03 05:14:28;;;;;;;16.73;8.82;;;-0.40;99.90;;;;;;5100499;28;20433;-78
2022/03/03 05:17:18;;;;;;;26.02;13.68;;;-0.30;99.90;;;;;;5078728;27;20047;-78
2022/03/03 05:19:47;;;;;;;19.33;9.52;;;-0.30;99.90;;;;;;5078171;27;20562;-78
2022/03/03 05:22:12;;;;;;;13.63;8.65;;;-0.40;99.90;;;;;;5103426;28;20582;-78
2022/03/03 05:24:38;;;;;;;32.28;14.98;;;-0.30;99.90;;;;;;5107636;28;20050;-78
2022/03/03 05:27:04;;;;;;;23.25;12.73;;;-0.40;99.90;;;;;;5091119;28;20125;-78
2022/03/03 05:29:30;;;;;;;11.88;6.45;;;-0.40;99.90;;;;;;5088950;28;20047;-78
2022/03/03 05:31:58;;;;;;;2.72;2.47;;;-0.40;99.90;;;;;;5091716;28;20043;-78
2022/03/03 05:34:24;;;;;;;3.67;3.47;;;-0.40;99.90;;;;;;5109430;28;20039;-78
2022/03/03 05:36:49;;;;;;;4.30;3.92;;;-0.50;99.90;;;;;;5088058;28;20042;-78
2022/03/03 05:39:17;;;;;;;7.35;6.45;;;-0.60;99.90;;;;;;5090444;28;20043;-78
2022/03/03 05:41:42;;;;;;;0.70;0.70;;;-0.60;99.90;;;;;;5090512;28;20035;-76
2022/03/03 05:44:12;;;;;;;2.20;2.00;;;-0.70;99.90;;;;;;5093122;27;20041;-78
2022/03/03 05:46:38;;;;;;;5.07;3.03;;;-0.80;99.90;;;;;;5112758;27;20467;-77
2022/03/03 05:49:04;;;;;;;14.20;3.78;;;-0.80;99.90;;;;;;5091937;27;20119;-77
2022/03/03 05:51:39;;;;;;;1.98;1.88;;;-0.80;99.90;;;;;;5104120;27;20039;-76
2022/03/03 05:54:05;;;;;;;2.75;2.30;;;-0.80;99.90;;;;;;5093525;27;20138;-76
2022/03/03 05:56:37;;;;;;;33.85;13.13;;;-0.90;99.90;;;;;;5100472;28;20182;-76
2022/03/03 05:59:07;;;;;;;11.73;7.30;;;-0.90;99.90;;;;;;5094966;27;20046;-76
2022/03/03 06:01:38;;;;;;;17.60;8.23;;;-0.90;99.90;;;;;;5099425;28;20051;-76
2022/03/03 06:04:07;;;;;;;0.80;0.80;;;-0.80;99.90;;;;;;5103384;27;20091;-76
2022/03/03 06:06:49;;;;;;;2.35;2.25;;;-0.90;99.90;;;;;;5082879;27;20072;-76
2022/03/03 06:09:35;;;;;;;17.80;8.07;;;-0.90;99.90;;;;;;5104667;27;20103;-76
2022/03/03 06:12:19;;;;;;;2.65;1.70;;;-1.00;99.90;;;;;;5126566;27;20039;-76
2022/03/03 06:15:01;;;;;;;3.63;3.38;;;-0.90;99.90;;;;;;5085940;27;20100;-76
2022/03/03 06:17:31;;;;;;;10.55;6.93;;;-1.00;99.90;;;;;;5107110;27;20035;-76
2022/03/03 06:20:00;;;;;;;13.40;8.90;;;-0.90;99.90;;;;;;5093704;27;20046;-76
2022/03/03 06:22:26;;;;;;;11.60;8.38;;;-0.90;99.90;;;;;;5111500;27;20051;-76
2022/03/03 06:24:52;;;;;;;16.33;10.13;;;-0.90;99.90;;;;;;5095078;27;20047;-76
2022/03/03 06:27:17;;;;;;;14.38;11.20;;;-0.90;99.90;;;;;;5112293;27;20860;-76
2022/03/03 06:29:43;;;;;;;25.58;14.35;;;-0.80;99.90;;;;;;5111283;27;20073;-77
2022/03/03 06:32:11;;;;;;;23.73;10.68;;;-0.80;99.90;;;;;;5107542;27;20043;-76
2022/03/03 06:34:37;;;;;;;29.98;13.30;;;-0.80;99.90;;;;;;5112172;27;20152;-76
2022/03/03 06:37:03;;;;;;;7.68;5.18;;;-0.70;99.90;;;;;;5110380;27;20035;-77
2022/03/03 06:39:29;;;;;;;12.70;9.35;;;-0.70;99.90;;;;;;5094723;27;20046;-76
2022/03/03 06:41:55;;;;;;;9.60;6.95;;;-0.70;99.90;;;;;;5111429;27;20530;-76
2022/03/03 06:44:21;;;;;;;16.10;10.85;;;-0.60;99.90;;;;;;5090630;28;20036;-76
2022/03/03 06:46:47;;;;;;;17.17;11.32;;;-0.60;99.90;;;;;;5103803;27;20151;-76
2022/03/03 06:49:13;;;;;;;15.48;7.03;;;-0.60;99.90;;;;;;5095127;27;20027;-76
2022/03/03 06:51:44;;;;;;;9.45;5.75;;;-0.60;99.90;;;;;;5110687;27;20148;-76
2022/03/03 06:54:21;;;;;;;16.25;10.02;;;-0.50;99.90;;;;;;5078440;28;20043;-76
2022/03/03 06:56:52;;;;;;;22.05;11.00;;;-0.50;99.90;;;;;;5078397;27;20582;-76
2022/03/03 06:59:38;;;;;;;22.88;12.30;;;-0.40;99.90;;;;;;5111347;27;20399;-76
2022/03/03 07:02:04;;;;;;;13.52;8.40;;;-0.30;99.90;;;;;;5092674;27;20079;-76
2022/03/03 07:04:33;;;;;;;29.33;13.30;;;-0.30;99.90;;;;;;5127296;27;20039;-76
2022/03/03 07:07:00;;;;;;;28.67;13.77;;;-0.20;99.90;;;;;;5109905;27;20118;-76
2022/03/03 07:09:25;;;;;;;23.33;11.00;;;-0.20;99.90;;;;;;5125550;27;20035;-76
2022/03/03 07:11:51;;;;;;;21.88;11.73;;;-0.10;99.90;;;;;;5091428;27;20046;-77
2022/03/03 07:14:18;;;;;;;25.73;12.68;;;-0.10;99.90;;;;;;5108220;27;20054;-76
2022/03/03 07:17:01;;;;;;;18.00;8.43;;;0.00;99.90;;;;;;5103166;27;20083;-76
2022/03/03 07:19:26;;;;;;;;;;;0.10;99.90;;;;;;5104113;27;20039;-76
2022/03/03 07:22:33;;;;;;;28.38;14.65;;;0.20;99.90;;;;;;5088185;27;20559;-77
2022/03/03 07:25:09;;;;;;;25.58;11.40;;;0.30;99.90;;;;;;5087641;28;20122;-76
2022/03/03 07:27:43;;;;;;;24.42;12.98;;;0.40;99.90;;;;;;5109961;27;20035;-77
2022/03/03 07:30:13;;;;;;;19.52;11.98;;;0.50;99.90;;;;;;5111218;27;20082;-76
2022/03/03 07:32:46;;;;;;;29.80;13.13;;;0.60;99.90;;;;;;5109954;27;20050;-77
2022/03/03 07:35:14;;;;;;;24.02;13.50;;;0.70;99.90;;;;;;5090936;28;20047;-77
2022/03/03 07:37:53;;;;;;;17.13;10.63;;;0.80;99.90;;;;;;5074549;27;20036;-76
2022/03/03 07:40:19;;;;;;;16.88;9.18;;;1.10;99.90;;;;;;5093801;27;20525;-77
2022/03/03 07:42:45;;;;;;;16.63;9.77;;;1.20;99.90;;;;;;5128112;27;20458;-77
2022/03/03 07:45:12;;;;;;;23.40;12.82;;;1.20;99.90;;;;;;5093890;27;20071;-77
2022/03/03 07:47:39;;;;;;;31.58;15.18;;;1.20;99.90;;;;;;5083470;28;20051;-77
2022/03/03 07:50:07;;;;;;;35.17;13.70;;;1.30;99.90;;;;;;5074771;27;20046;-76
2022/03/03 07:52:34;;;;;;;16.40;9.02;;;1.40;99.90;;;;;;5110754;27;20047;-77
2022/03/03 07:55:01;;;;;;;22.30;11.82;;;1.40;99.90;;;;;;5092655;27;20064;-77
2022/03/03 07:57:38;;;;;;;23.73;11.45;;;1.50;99.90;;;;;;5126952;27;20054;-77
2022/03/03 08:00:13;;;;;;;15.98;9.82;;;1.50;99.90;;;;;;5090013;28;20458;-77
2022/03/03 08:02:42;;;;;;;23.52;12.30;;;1.60;99.90;;;;;;5089695;28;20054;-77
2022/03/03 08:05:08;;;;;;;25.08;13.05;;;1.70;99.90;;;;;;5092362;27;20793;-77
2022/03/03 08:07:43;;;;;;;29.42;14.57;;;1.80;99.90;;;;;;5109161;27;20036;-77
2022/03/03 08:10:10;;;;;;;24.45;9.30;;;1.90;99.90;;;;;;5110191;27;20039;-77
2022/03/03 08:12:37;;;;;;;14.60;8.80;;;2.00;99.90;;;;;;5109196;27;20043;-77
2022/03/03 08:15:03;;;;;;;27.63;13.68;;;2.10;99.90;;;;;;5092951;27;20039;-76
2022/03/03 08:17:32;;;;;;;27.17;12.23;;;2.30;99.90;;;;;;5088727;28;20122;-77
2022/03/03 08:20:00;;;;;;;26.10;12.77;;;2.40;99.90;;;;;;5090302;28;20073;-77
2022/03/03 08:22:27;;;;;;;27.00;12.48;;;2.50;99.90;;;;;;5072451;28;20062;-77
2022/03/03 08:24:57;;;;;;;34.90;16.25;;;2.70;99.90;;;;;;5094509;27;20144;-77
2022/03/03 08:27:25;;;;;;;9.90;6.10;;;3.00;99.90;;;;;;5092961;27;20039;-77
2022/03/03 08:29:51;;;;;;;6.28;4.88;;;3.10;99.90;;;;;;5093015;27;20066;-77
2022/03/03 08:32:19;;;;;;;28.77;14.68;;;3.10;99.90;;;;;;5109628;27;20518;-77
2022/03/03 08:35:22;;;;;;;21.58;12.32;;;3.10;99.90;;;;;;5110109;27;20131;-77
2022/03/03 08:38:01;;;;;;;31.73;15.23;;;3.20;99.90;;;;;;5062726;28;20060;-77
2022/03/03 08:40:27;;;;;;;30.63;16.10;;;3.30;99.90;;;;;;5090104;28;20058;-77
2022/03/03 08:42:58;;;;;;;22.63;10.73;;;3.40;99.90;;;;;;5109767;27;20049;-76
2022/03/03 08:45:28;;;;;;;38.65;17.35;;;3.50;99.90;;;;;;5109682;27;20167;-77
2022/03/03 08:47:57;;;;;;;21.10;12.57;;;3.70;99.90;;;;;;5108626;27;20039;-77
2022/03/03 08:50:27;;;;;;;30.77;13.27;;;3.80;99.90;;;;;;5109797;27;20042;-77
2022/03/03 08:52:54;;;;;;;24.25;8.90;;;3.90;99.90;;;;;;5108571;27;20046;-77
2022/03/03 08:55:20;;;;;;;30.05;14.32;;;4.00;99.90;;;;;;5092237;28;20111;-77
2022/03/03 08:57:45;;;;;;;27.25;13.02;;;4.50;99.90;;;;;;5092411;27;20199;-77
2022/03/03 09:00:12;;;;;;;23.90;12.73;;;5.40;99.90;;;;;;5108355;27;20694;-77
2022/03/03 09:02:37;;;;;;;9.35;5.82;;;6.30;99.90;;;;;;5126783;27;20043;-77
2022/03/03 09:05:03;;;;;;;14.07;8.90;;;6.80;99.90;;;;;;5091845;27;20091;-77
2022/03/03 09:07:30;;;;;;;28.75;12.73;;;7.40;99.90;;;;;;5109450;27;20035;-77
2022/03/03 09:09:57;;;;;;;18.35;8.88;;;7.80;99.90;;;;;;5109749;27;20055;-77
2022/03/03 09:12:23;;;;;;;24.55;11.35;;;8.10;99.90;;;;;;5109144;28;20594;-77
2022/03/03 09:14:48;;;;;;;18.90;9.40;;;8.40;99.90;;;;;;5091708;28;20042;-77
2022/03/03 09:17:14;;;;;;;17.08;9.77;;;8.60;99.90;;;;;;5108033;27;20047;-77
2022/03/03 09:19:40;;;;;;;19.33;10.23;;;8.90;99.90;;;;;;5108978;27;20314;-76
2022/03/03 09:22:05;;;;;;;18.42;8.70;;;9.20;99.90;;;;;;5108803;28;20050;-77
2022/03/03 09:24:31;;;;;;;18.35;9.55;;;9.40;99.90;;;;;;5092779;28;20054;-77
2022/03/03 09:26:57;;;;;;;8.38;5.78;;;9.60;99.90;;;;;;5075103;28;20627;-77
2022/03/03 09:29:23;;;;;;;15.88;9.48;;;9.70;99.90;;;;;;5090269;28;20126;-77
2022/03/03 09:31:49;;;;;;;19.88;9.45;;;9.60;97.10;;;;;;5091082;28;20070;-77
2022/03/03 09:34:15;;;;;;;27.70;12.32;;;9.60;96.70;;;;;;5108244;28;20035;-77
2022/03/03 09:36:41;;;;;;;20.98;9.27;;;9.50;93.80;;;;;;5109192;28;20071;-77
2022/03/03 09:39:07;;;;;;;13.45;8.40;;;9.30;91.90;;;;;;5108594;28;20149;-77
2022/03/03 09:41:33;;;;;;;22.70;10.35;;;9.10;88.80;;;;;;5091503;28;20046;-77
2022/03/03 09:43:58;;;;;;;23.70;11.23;;;9.10;90.80;;;;;;5086362;28;20054;-76
2022/03/03 09:46:24;;;;;;;25.35;10.77;;;9.00;90.10;;;;;;5088819;28;20036;-77
2022/03/03 09:48:51;;;;;;;23.65;10.98;;;8.90;88.60;;;;;;5071814;28;20035;-76
2022/03/03 09:51:17;;;;;;;18.13;9.93;;;8.80;89.80;;;;;;5099476;28;20175;-77
2022/03/03 09:53:43;;;;;;;17.90;10.90;;;8.80;91.80;;;;;;5109207;28;20546;-76
2022/03/03 09:56:08;;;;;;;19.00;9.57;;;8.90;89.70;;;;;;5092040;28;20081;-76
2022/03/03 09:58:34;;;;;;;21.13;10.13;;;8.90;89.80;;;;;;5107759;28;20124;-76
2022/03/03 10:01:00;;;;;;;21.10;9.70;;;9.00;88.80;;;;;;5108626;28;20419;-76
2022/03/03 10:03:33;;;;;;;12.35;7.97;;;9.00;82.80;;;;;;5108597;28;20124;-76
2022/03/03 10:06:00;;;;;;;16.98;9.48;;;9.00;86.40;;;;;;5091108;28;20039;-76
2022/03/03 10:08:28;;;;;;;13.45;7.03;;;9.10;85.90;;;;;;5108805;28;20122;-76
2022/03/03 10:10:59;;;;;;;12.63;6.38;;;9.30;88.60;;;;;;5107837;28;20047;-76
2022/03/03 10:13:26;;;;;;;16.70;9.73;;;9.40;88.60;;;;;;5108432;28;20067;-76
2022/03/03 10:15:57;;;;;;;27.30;9.27;;;9.40;84.90;;;;;;5091688;28;20054;-76
2022/03/03 10:18:23;;;;;;;13.98;7.15;;;9.40;81.30;;;;;;5090815;28;20088;-76
2022/03/03 10:20:54;;;;;;;15.43;8.85;;;9.30;84.40;;;;;;5091491;28;20043;-76
2022/03/03 10:23:27;;;;;;;20.17;10.68;;;9.30;85.70;;;;;;5091515;28;20119;-76
2022/03/03 10:25:54;;;;;;;7.03;4.65;;;9.40;82.60;;;;;;5105495;28;20047;-76
2022/03/03 10:28:23;;;;;;;8.40;4.82;;;9.40;86.30;;;;;;5101878;28;22072;-76
2022/03/03 10:30:57;;;;;;;10.63;5.70;;;9.40;84.50;;;;;;5084111;27;20445;-75
2022/03/03 10:33:26;;;;;;;14.20;6.47;;;9.40;85.50;;;;;;5110030;27;20447;-76
2022/03/03 10:36:15;;;;;;;15.00;7.95;;;9.50;86.60;;;;;;5112231;27;20047;-76
2022/03/03 10:38:49;;;;;;;12.77;7.32;;;9.50;83.10;;;;;;5087490;27;20398;-76
2022/03/03 10:41:46;;;;;;;8.02;4.60;;;9.50;87.40;;;;;;5112008;27;20043;-76
2022/03/03 10:44:41;;;;;;;13.60;6.93;;;9.60;85.20;;;;;;5091664;28;20167;-76
2022/03/03 10:47:16;;;;;;;6.63;4.47;;;9.80;82.90;;;;;;5086671;28;20084;-76
2022/03/03 10:49:44;;;;;;;9.45;5.32;;;9.80;83.60;;;;;;5082298;27;20044;-76
2022/03/03 10:52:11;;;;;;;12.60;6.60;;;10.00;83.60;;;;;;5093818;27;20135;-76
2022/03/03 10:54:53;;;;;;;16.20;8.13;;;10.10;78.70;;;;;;5095100;27;20043;-76
2022/03/03 10:57:56;;;;;;;12.82;8.45;;;10.20;80.60;;;;;;5113399;27;20455;-76
2022/03/03 11:00:24;;;;;;;14.00;6.85;;;10.30;74.50;;;;;;5049938;27;20445;-76
2022/03/03 11:02:53;;;;;;;13.50;5.45;;;10.20;69.80;;;;;;5109795;27;20130;-76
2022/03/03 11:05:21;;;;;;;9.93;6.05;;;10.10;73.90;;;;;;5096850;27;20039;-76
2022/03/03 11:07:48;;;;;;;8.32;4.22;;;10.20;77.90;;;;;;5111116;27;20077;-76
2022/03/03 11:10:17;;;;;;;15.20;7.43;;;10.30;73.50;;;;;;5094082;27;20118;-76
2022/03/03 11:12:44;;;;;;;8.77;5.35;;;10.40;75.80;;;;;;5093882;27;20428;-75
2022/03/03 11:15:12;;;;;;;16.05;8.27;;;10.40;71.60;;;;;;5127676;27;20525;-75
2022/03/03 11:17:38;;;;;;;16.20;7.25;;;10.50;70.70;;;;;;5091167;28;20406;-76
2022/03/03 11:20:05;;;;;;;11.55;7.10;;;10.60;65.00;;;;;;5088127;27;20429;-76
2022/03/03 11:22:32;;;;;;;11.55;7.22;;;10.50;66.00;;;;;;5083338;28;20066;-75
2022/03/03 11:25:01;;;;;;;14.38;7.28;;;10.50;68.70;;;;;;5080997;27;20067;-75
2022/03/03 11:27:38;;;;;;;15.50;7.57;;;10.60;69.00;;;;;;5109637;27;20039;-75
2022/03/03 11:30:15;;;;;;;16.50;8.57;;;10.70;68.20;;;;;;5090368;27;20039;-75
2022/03/03 11:32:42;;;;;;;15.07;7.80;;;10.70;68.00;;;;;;5111165;27;20042;-75
2022/03/03 11:35:10;;;;;;;18.33;8.35;;;10.70;66.50;;;;;;5110748;27;20483;-75
2022/03/03 11:37:41;;;;;;;11.60;6.88;;;10.50;67.50;;;;;;5109505;27;20043;-75
2022/03/03 11:40:07;;;;;;;14.02;7.30;;;10.50;67.00;;;;;;5096040;27;20422;-75
2022/03/03 11:42:53;;;;;;;17.17;10.07;;;10.50;68.60;;;;;;5110488;27;20039;-75
2022/03/03 11:45:28;;;;;;;13.90;8.68;;;10.50;65.10;;;;;;5109999;27;20039;-75
2022/03/03 11:48:09;;;;;;;10.45;6.78;;;10.40;66.30;;;;;;5113132;27;20046;-76
2022/03/03 11:50:35;;;;;;;13.00;6.57;;;10.40;67.50;;;;;;5073597;28;20054;-75
2022/03/03 11:53:02;;;;;;;14.27;8.27;;;10.40;68.30;;;;;;5108775;27;20039;-75
2022/03/03 11:55:44;;;;;;;13.48;7.90;;;10.50;68.30;;;;;;5098252;27;20051;-75
2022/03/03 11:58:25;;;;;;;14.43;8.27;;;10.50;69.10;;;;;;5093965;27;20043;-75
2022/03/03 12:01:05;;;;;;;13.00;7.47;;;10.60;67.90;;;;;;5104530;27;20047;-75
2022/03/03 12:03:32;;;;;;;14.15;7.90;;;10.70;69.10;;;;;;5092017;27;20107;-75
2022/03/03 12:06:08;;;;;;;12.77;6.88;;;10.80;66.20;;;;;;5097010;27;20179;-75
2022/03/03 12:08:36;;;;;;;11.07;6.15;;;10.70;67.90;;;;;;5106828;27;20640;-75
2022/03/03 12:11:15;;;;;;;18.52;8.52;;;10.80;71.00;;;;;;5092804;27;20514;-75
2022/03/03 12:13:41;;;;;;;10.38;6.07;;;11.00;68.60;;;;;;5109636;27;20348;-75
2022/03/03 12:16:35;;;;;;;15.48;8.32;;;11.00;69.20;;;;;;5109311;27;20643;-75
2022/03/03 12:19:00;;;;;;;12.15;7.10;;;11.00;69.10;;;;;;5108652;27;20047;-75
2022/03/03 12:21:44;;;;;;;13.27;7.90;;;10.90;66.20;;;;;;5101381;28;20158;-75
2022/03/03 12:24:33;;;;;;;16.02;8.75;;;10.80;67.80;;;;;;5076361;28;20035;-75
2022/03/03 12:27:01;;;;;;;28.20;10.90;;;10.80;68.20;;;;;;5104712;27;20047;-75
2022/03/03 12:29:34;;;;;;;17.05;8.95;;;10.80;67.80;;;;;;5071025;28;20079;-75
2022/03/03 12:32:24;;;;;;;12.60;7.95;;;10.80;68.20;;;;;;5088511;27;20039;-75
2022/03/03 12:34:51;;;;;;;9.45;5.70;;;10.90;67.20;;;;;;5083108;28;20074;-75
2022/03/03 12:37:17;;;;;;;14.07;5.97;;;10.90;68.00;;;;;;5072390;28;20219;-75
2022/03/03 12:39:55;;;;;;;5.40;3.40;;;10.90;67.70;;;;;;5088545;27;20061;-75
2022/03/03 12:42:23;;;;;;;13.90;8.40;;;10.90;70.10;;;;;;5082615;28;20503;-75
2022/03/03 12:44:53;;;;;;;11.93;6.75;;;11.20;65.30;;;;;;5108881;27;20043;-75
2022/03/03 12:47:40;;;;;;;12.65;6.65;;;11.00;65.20;;;;;;5081256;28;20044;-75
2022/03/03 12:50:15;;;;;;;14.32;8.60;;;10.80;66.20;;;;;;5087276;28;20040;-75
2022/03/03 12:52:55;;;;;;;18.13;7.90;;;10.80;65.70;;;;;;5089114;28;20051;-75